createdAt,value
2018-10-01T00:00:22.764Z,60.18
2018-10-01T00:03:26.300Z,59.88
2018-10-01T00:06:29.780Z,59.67
2018-10-01T00:09:33.275Z,59.33
2018-10-01T00:12:37.063Z,59.06
2018-10-01T00:15:40.590Z,59.51
2018-10-01T00:18:44.075Z,59.82
2018-10-01T00:21:52.778Z,59.66
2018-10-01T00:24:56.387Z,59.58
2018-10-01T00:27:59.926Z,59.74
2018-10-01T00:31:03.436Z,59.90
2018-10-01T00:34:06.984Z,60.09
2018-10-01T00:37:10.418Z,60.50
2018-10-01T00:40:13.924Z,60.47
2018-10-01T00:43:17.438Z,60.55
2018-10-01T00:46:20.926Z,61.11
2018-10-01T00:49:24.450Z,61.20
2018-10-01T00:52:27.948Z,61.00
2018-10-01T00:55:31.412Z,60.81
2018-10-01T00:58:34.915Z,60.38
2018-10-01T01:01:38.539Z,59.74
2018-10-01T01:04:42.065Z,59.74
2018-10-01T01:07:45.675Z,60.11
2018-10-01T01:10:49.140Z,59.99
2018-10-01T01:13:52.664Z,60.25
2018-10-01T01:16:56.142Z,60.94
2018-10-01T01:19:59.660Z,61.02
2018-10-01T01:23:03.169Z,60.98
2018-10-01T01:26:06.784Z,61.17
2018-10-01T01:29:10.278Z,60.81
2018-10-01T01:32:13.767Z,60.52
2018-10-01T01:35:17.261Z,60.19
2018-10-01T01:38:20.786Z,60.04
2018-10-01T01:41:24.295Z,59.94
2018-10-01T01:44:27.795Z,59.98
2018-10-01T01:47:31.270Z,59.85
2018-10-01T01:50:34.910Z,60.09
2018-10-01T01:53:38.382Z,60.05
2018-10-01T01:56:41.896Z,60.39
2018-10-01T01:59:45.474Z,60.40
2018-10-01T02:02:48.893Z,60.41
2018-10-01T02:05:52.388Z,60.54
2018-10-01T02:08:55.963Z,60.28
2018-10-01T02:11:59.685Z,60.07
2018-10-01T02:15:03.208Z,59.51
2018-10-01T02:18:06.759Z,59.58
2018-10-01T02:21:10.208Z,59.42
2018-10-01T02:24:13.622Z,59.41
2018-10-01T02:27:17.288Z,59.42
2018-10-01T02:30:20.917Z,59.90
2018-10-01T02:33:24.496Z,60.40
2018-10-01T02:36:27.936Z,60.64
2018-10-01T02:39:31.441Z,60.60
2018-10-01T02:42:34.944Z,60.91
2018-10-01T02:45:38.437Z,61.17
2018-10-01T02:48:41.928Z,61.58
2018-10-01T02:51:50.730Z,61.80
2018-10-01T02:54:54.426Z,61.83
2018-10-01T02:57:57.870Z,62.40
2018-10-01T03:01:01.677Z,62.10
2018-10-01T03:04:05.234Z,62.08
2018-10-01T03:07:08.694Z,62.77
2018-10-01T03:10:12.177Z,63.09
2018-10-01T03:13:15.688Z,63.40
2018-10-01T03:16:19.183Z,63.30
2018-10-01T03:19:22.611Z,63.09
2018-10-01T03:22:26.100Z,64.04
2018-10-01T03:25:29.513Z,64.40
2018-10-01T03:28:32.992Z,64.68
2018-10-01T03:31:36.507Z,63.96
2018-10-01T03:34:40.076Z,64.21
2018-10-01T03:37:43.509Z,64.33
2018-10-01T03:40:46.914Z,65.54
2018-10-01T03:43:50.502Z,65.23
2018-10-01T03:46:54.040Z,65.15
2018-10-01T03:49:57.488Z,65.27
2018-10-01T03:53:00.915Z,64.76
2018-10-01T03:56:04.332Z,64.48
2018-10-01T03:59:07.862Z,64.28
2018-10-01T04:02:11.327Z,64.59
2018-10-01T04:05:14.728Z,64.90
2018-10-01T04:08:18.199Z,65.10
2018-10-01T04:11:21.640Z,65.11
2018-10-01T04:14:25.150Z,65.26
2018-10-01T04:17:28.627Z,65.29
2018-10-01T04:20:32.157Z,65.20
2018-10-01T04:23:35.612Z,64.74
2018-10-01T04:26:39.013Z,64.70
2018-10-01T04:29:42.406Z,64.20
2018-10-01T04:32:45.849Z,64.16
2018-10-01T04:35:49.346Z,64.79
2018-10-01T04:38:52.764Z,63.77
2018-10-01T04:41:56.437Z,63.47
2018-10-01T04:44:59.833Z,63.80
2018-10-01T04:48:03.254Z,63.95
2018-10-01T04:51:06.655Z,63.78
2018-10-01T04:54:10.536Z,63.96
2018-10-01T04:57:14.087Z,64.36
2018-10-01T05:00:17.459Z,64.29
2018-10-01T05:03:20.941Z,64.61
2018-10-01T05:06:24.341Z,64.54
2018-10-01T05:09:27.754Z,64.87
2018-10-01T05:12:31.141Z,64.61
2018-10-01T05:15:34.551Z,64.44
2018-10-01T05:18:38.086Z,64.68
2018-10-01T05:21:41.446Z,64.72
2018-10-01T05:24:44.854Z,64.68
2018-10-01T05:27:48.313Z,64.59
2018-10-01T05:30:51.819Z,64.65
2018-10-01T05:33:55.295Z,64.60
2018-10-01T05:36:58.655Z,64.77
2018-10-01T05:40:02.165Z,64.45
2018-10-01T05:43:05.783Z,64.79
2018-10-01T05:46:09.179Z,65.15
2018-10-01T05:49:12.617Z,65.62
2018-10-01T05:52:15.997Z,65.84
2018-10-01T05:55:19.377Z,66.15
2018-10-01T05:58:22.783Z,66.10
2018-10-01T06:01:26.158Z,66.03
2018-10-01T06:04:29.672Z,66.02
2018-10-01T06:07:33.178Z,66.13
2018-10-01T06:10:36.725Z,66.31
2018-10-01T06:13:40.274Z,66.24
2018-10-01T06:16:43.770Z,66.66
2018-10-01T06:19:47.263Z,67.22
2018-10-01T06:22:51.019Z,67.72
2018-10-01T06:25:54.520Z,67.09
2018-10-01T06:28:58.002Z,67.13
2018-10-01T06:32:01.652Z,66.84
2018-10-01T06:35:05.222Z,67.18
2018-10-01T06:38:08.804Z,66.83
2018-10-01T06:41:12.304Z,66.75
2018-10-01T06:44:15.842Z,66.99
2018-10-01T06:47:19.328Z,66.47
2018-10-01T06:50:22.903Z,66.39
2018-10-01T06:53:26.477Z,66.04
2018-10-01T06:56:30.072Z,65.58
2018-10-01T06:59:33.528Z,65.76
2018-10-01T07:02:37.030Z,65.67
2018-10-01T07:05:40.641Z,65.51
2018-10-01T07:08:44.264Z,65.39
2018-10-01T07:11:47.735Z,65.39
2018-10-01T07:14:51.265Z,65.07
2018-10-01T07:17:54.747Z,65.08
2018-10-01T07:20:58.383Z,65.31
2018-10-01T07:24:01.855Z,66.11
2018-10-01T07:27:05.528Z,66.57
2018-10-01T07:30:09.008Z,66.58
2018-10-01T07:33:12.478Z,66.88
2018-10-01T07:36:15.970Z,67.08
2018-10-01T07:39:19.467Z,67.78
2018-10-01T07:42:22.983Z,67.86
2018-10-01T07:45:26.558Z,67.58
2018-10-01T07:48:30.030Z,68.06
2018-10-01T07:51:33.512Z,68.33
2018-10-01T07:54:36.990Z,68.44
2018-10-01T07:57:40.478Z,68.62
2018-10-01T08:00:43.983Z,68.48
2018-10-01T08:03:47.477Z,68.17
2018-10-01T08:06:51.003Z,69.12
2018-10-01T08:09:54.525Z,69.31
2018-10-01T08:12:57.994Z,69.45
2018-10-01T08:16:01.618Z,69.46
2018-10-01T08:19:05.093Z,69.12
2018-10-01T08:22:08.471Z,68.30
2018-10-01T08:25:11.954Z,68.07
2018-10-01T08:28:15.396Z,68.41
2018-10-01T08:31:18.811Z,68.58
2018-10-01T08:34:22.302Z,68.78
2018-10-01T08:37:25.813Z,68.86
2018-10-01T08:40:29.318Z,68.77
2018-10-01T08:43:32.804Z,68.23
2018-10-01T08:46:36.210Z,67.45
2018-10-01T08:49:44.305Z,67.38
2018-10-01T08:52:54.191Z,67.66
2018-10-01T08:55:57.723Z,66.81
2018-10-01T08:59:01.176Z,67.24
2018-10-01T09:02:04.843Z,66.37
2018-10-01T09:05:08.360Z,65.67
2018-10-01T09:08:11.840Z,66.29
2018-10-01T09:11:15.415Z,64.02
2018-10-01T09:14:18.877Z,63.01
2018-10-01T09:17:22.320Z,62.25
2018-10-01T09:20:25.844Z,61.64
2018-10-01T09:23:29.224Z,60.31
2018-10-01T09:26:32.753Z,59.62
2018-10-01T09:29:36.297Z,58.69
2018-10-01T09:32:39.712Z,57.84
2018-10-01T09:35:43.112Z,58.31
2018-10-01T09:38:46.614Z,57.18
2018-10-01T09:41:50.325Z,57.35
2018-10-01T09:44:53.732Z,58.25
2018-10-01T09:47:57.919Z,59.14
2018-10-01T09:51:01.379Z,59.80
2018-10-01T09:54:05.812Z,59.73
2018-10-01T09:57:09.255Z,58.79
2018-10-01T10:00:12.817Z,58.49
2018-10-01T10:03:16.362Z,58.72
2018-10-01T10:06:19.969Z,58.07
2018-10-01T10:09:23.652Z,58.01
2018-10-01T10:12:27.064Z,56.79
2018-10-01T10:15:30.599Z,55.79
2018-10-01T10:18:34.318Z,55.48
2018-10-01T10:21:40.356Z,53.92
2018-10-01T10:24:43.966Z,54.67
2018-10-01T10:27:47.919Z,53.61
2018-10-01T10:30:51.662Z,53.46
2018-10-01T10:33:55.343Z,53.35
2018-10-01T10:36:58.804Z,51.82
2018-10-01T10:40:02.282Z,51.41
2018-10-01T10:43:05.809Z,50.36
2018-10-01T10:46:09.429Z,49.97
2018-10-01T10:49:12.980Z,48.46
2018-10-01T10:52:16.476Z,48.54
2018-10-01T10:55:19.900Z,48.63
2018-10-01T10:58:23.402Z,48.01
2018-10-01T11:01:29.099Z,46.13
2018-10-01T11:04:32.555Z,46.48
2018-10-01T11:07:35.943Z,46.86
2018-10-01T11:10:39.447Z,47.40
2018-10-01T11:13:42.954Z,48.13
2018-10-01T11:16:46.347Z,49.17
2018-10-01T11:19:49.786Z,49.43
2018-10-01T11:22:53.434Z,49.11
2018-10-01T11:25:56.870Z,49.50
2018-10-01T11:29:00.326Z,50.03
2018-10-01T11:32:03.761Z,49.84
2018-10-01T11:35:07.330Z,50.58
2018-10-01T11:38:10.680Z,50.86
2018-10-01T11:41:14.063Z,51.25
2018-10-01T11:44:17.478Z,51.27
2018-10-01T11:47:20.952Z,51.44
2018-10-01T11:50:24.665Z,51.82
2018-10-01T11:53:29.381Z,51.71
2018-10-01T11:56:32.897Z,51.64
2018-10-01T11:59:36.313Z,51.96
2018-10-01T12:02:39.781Z,51.38
2018-10-01T12:05:43.220Z,52.13
2018-10-01T12:08:46.621Z,51.82
2018-10-01T12:11:50.127Z,51.42
2018-10-01T12:14:53.536Z,50.92
2018-10-01T12:17:56.926Z,51.43
2018-10-01T12:21:00.515Z,51.26
2018-10-01T12:24:04.078Z,51.66
2018-10-01T12:27:07.545Z,51.55
2018-10-01T12:30:10.827Z,51.41
2018-10-01T12:33:14.354Z,51.75
2018-10-01T12:36:17.835Z,50.50
2018-10-01T12:39:21.297Z,51.43
2018-10-01T12:42:24.741Z,50.50
2018-10-01T12:45:28.247Z,49.67
2018-10-01T12:48:31.852Z,49.50
2018-10-01T12:51:35.477Z,49.38
2018-10-01T12:54:38.980Z,48.37
2018-10-01T12:57:42.646Z,47.89
2018-10-01T13:00:46.073Z,48.18
2018-10-01T13:03:49.476Z,47.78
2018-10-01T13:06:53.000Z,46.62
2018-10-01T13:09:56.679Z,45.77
2018-10-01T13:13:00.322Z,44.90
2018-10-01T13:16:04.850Z,45.76
2018-10-01T13:19:08.369Z,44.83
2018-10-01T13:22:11.883Z,44.34
2018-10-01T13:25:15.563Z,44.74
2018-10-01T13:28:19.012Z,44.36
2018-10-01T13:31:22.409Z,45.33
2018-10-01T13:34:26.181Z,45.86
2018-10-01T13:37:29.626Z,45.95
2018-10-01T13:40:33.137Z,46.85
2018-10-01T13:43:36.638Z,45.88
2018-10-01T13:46:40.199Z,46.11
2018-10-01T13:49:43.821Z,46.58
2018-10-01T13:52:47.502Z,46.77
2018-10-01T13:55:51.041Z,47.53
2018-10-01T13:58:54.535Z,48.28
2018-10-01T14:01:58.113Z,49.42
2018-10-01T14:05:01.708Z,49.68
2018-10-01T14:08:05.135Z,49.03
2018-10-01T14:11:08.742Z,48.02
2018-10-01T14:14:12.279Z,47.76
2018-10-01T14:17:15.815Z,46.88
2018-10-01T14:20:19.269Z,45.62
2018-10-01T14:23:22.754Z,45.36
2018-10-01T14:26:26.760Z,44.25
2018-10-01T14:29:30.383Z,43.55
2018-10-01T14:32:33.944Z,41.27
2018-10-01T14:35:37.479Z,40.07
2018-10-01T14:38:41.037Z,39.72
2018-10-01T14:41:44.576Z,39.16
2018-10-01T14:44:48.094Z,39.36
2018-10-01T14:47:51.681Z,38.94
2018-10-01T14:50:55.239Z,39.49
2018-10-01T14:53:58.854Z,38.53
2018-10-01T14:57:02.413Z,37.56
2018-10-01T15:00:06.069Z,37.25
2018-10-01T15:03:09.934Z,36.68
2018-10-01T15:06:13.988Z,36.60
2018-10-01T15:09:17.451Z,34.57
2018-10-01T15:12:21.011Z,35.29
2018-10-01T15:15:24.555Z,35.70
2018-10-01T15:18:28.211Z,36.10
2018-10-01T15:21:32.112Z,35.90
2018-10-01T15:24:35.624Z,35.85
2018-10-01T15:27:39.060Z,37.05
2018-10-01T15:30:42.499Z,37.58
2018-10-01T15:33:45.919Z,38.12
2018-10-01T15:36:49.462Z,38.49
2018-10-01T15:39:52.879Z,38.50
2018-10-01T15:42:56.358Z,37.77
2018-10-01T15:45:59.776Z,38.42
2018-10-01T15:49:03.192Z,38.23
2018-10-01T15:52:06.735Z,38.44
2018-10-01T15:55:10.244Z,38.82
2018-10-01T15:58:13.810Z,39.57
2018-10-01T16:01:17.334Z,39.61
2018-10-01T16:04:20.879Z,40.27
2018-10-01T16:07:24.320Z,40.85
2018-10-01T16:10:27.891Z,41.70
2018-10-01T16:13:31.293Z,41.83
2018-10-01T16:16:35.032Z,42.17
2018-10-01T16:19:38.525Z,42.30
2018-10-01T16:22:42.057Z,42.56
2018-10-01T16:25:45.532Z,42.77
2018-10-01T16:28:49.117Z,42.95
2018-10-01T16:31:52.626Z,43.14
2018-10-01T16:34:56.007Z,43.53
2018-10-01T16:37:59.520Z,45.19
2018-10-01T16:41:03.014Z,48.20
2018-10-01T16:44:06.793Z,51.60
2018-10-01T16:47:10.265Z,52.62
2018-10-01T16:50:13.761Z,53.18
2018-10-01T16:53:17.405Z,54.22
2018-10-01T16:56:22.202Z,54.86
2018-10-01T16:59:25.681Z,55.61
2018-10-01T17:02:29.072Z,55.87
2018-10-01T17:05:32.542Z,56.66
2018-10-01T17:08:36.292Z,56.86
2018-10-01T17:11:39.750Z,56.70
2018-10-01T17:14:43.196Z,56.78
2018-10-01T17:17:46.586Z,56.91
2018-10-01T17:20:50.095Z,57.13
2018-10-01T17:23:53.493Z,57.07
2018-10-01T17:26:56.926Z,57.51
2018-10-01T17:30:00.455Z,57.38
2018-10-01T17:33:04.310Z,57.50
2018-10-01T17:36:08.360Z,57.59
2018-10-01T17:39:12.015Z,57.51
2018-10-01T17:42:15.578Z,57.24
2018-10-01T17:45:19.041Z,56.23
2018-10-01T17:48:22.442Z,54.40
2018-10-01T17:51:25.865Z,54.26
2018-10-01T17:54:29.257Z,53.36
2018-10-01T17:57:32.672Z,53.01
2018-10-01T18:00:36.248Z,52.97
2018-10-01T18:03:39.703Z,52.67
2018-10-01T18:06:43.139Z,52.21
2018-10-01T18:09:46.701Z,52.31
2018-10-01T18:12:50.245Z,52.10
2018-10-01T18:15:53.650Z,52.11
2018-10-01T18:18:57.118Z,52.41
2018-10-01T18:22:00.556Z,52.62
2018-10-01T18:25:04.187Z,52.92
2018-10-01T18:28:07.589Z,53.13
2018-10-01T18:31:11.561Z,53.08
2018-10-01T18:34:14.981Z,53.09
2018-10-01T18:37:18.576Z,54.05
2018-10-01T18:40:22.424Z,54.62
2018-10-01T18:43:26.124Z,54.90
2018-10-01T18:46:29.599Z,55.47
2018-10-01T18:49:33.006Z,55.80
2018-10-01T18:52:36.495Z,56.29
2018-10-01T18:55:40.605Z,54.85
2018-10-01T18:58:44.015Z,54.80
2018-10-01T19:01:47.418Z,54.03
2018-10-01T19:04:50.948Z,52.85
2018-10-01T19:07:54.390Z,53.23
2018-10-01T19:10:57.800Z,53.43
2018-10-01T19:14:01.331Z,52.76
2018-10-01T19:17:05.017Z,53.27
2018-10-01T19:20:08.575Z,53.60
2018-10-01T19:23:12.031Z,53.21
2018-10-01T19:26:15.567Z,53.33
2018-10-01T19:29:19.141Z,53.14
2018-10-01T19:32:22.844Z,53.35
2018-10-01T19:35:26.512Z,53.13
2018-10-01T19:38:30.013Z,53.30
2018-10-01T19:41:33.601Z,53.11
2018-10-01T19:44:37.280Z,53.02
2018-10-01T19:47:40.789Z,52.79
2018-10-01T19:50:44.318Z,52.92
2018-10-01T19:53:47.948Z,52.85
2018-10-01T19:56:51.409Z,52.81
2018-10-01T19:59:54.903Z,52.65
2018-10-01T20:02:58.402Z,52.89
2018-10-01T20:06:01.904Z,52.75
2018-10-01T20:09:08.279Z,52.93
2018-10-01T20:12:12.977Z,53.20
2018-10-01T20:15:16.514Z,52.70
2018-10-01T20:18:19.980Z,53.08
2018-10-01T20:21:23.593Z,53.00
2018-10-01T20:24:27.324Z,53.11
2018-10-01T20:27:30.722Z,52.97
2018-10-01T20:30:34.319Z,52.89
2018-10-01T20:33:37.837Z,52.63
2018-10-01T20:36:41.410Z,52.76
2018-10-01T20:39:44.961Z,52.95
2018-10-01T20:42:48.417Z,52.71
2018-10-01T20:45:52.202Z,52.76
2018-10-01T20:48:55.502Z,52.55
2018-10-01T20:51:59.155Z,52.63
2018-10-01T20:55:02.672Z,52.74
2018-10-01T20:58:06.256Z,52.69
2018-10-01T21:01:09.733Z,52.91
2018-10-01T21:04:13.281Z,53.22
2018-10-01T21:07:16.769Z,52.86
2018-10-01T21:10:20.286Z,53.45
2018-10-01T21:13:23.863Z,55.23
2018-10-01T21:16:27.379Z,57.34
2018-10-01T21:19:30.896Z,58.40
2018-10-01T21:22:34.501Z,58.72
2018-10-01T21:25:37.918Z,58.93
2018-10-01T21:28:41.359Z,59.22
2018-10-01T21:31:44.761Z,58.82
2018-10-01T21:34:48.366Z,58.48
2018-10-01T21:37:51.862Z,58.70
2018-10-01T21:40:55.546Z,58.66
2018-10-01T21:43:58.977Z,58.74
2018-10-01T21:47:02.381Z,58.88
2018-10-01T21:50:05.980Z,58.79
2018-10-01T21:53:09.844Z,58.45
2018-10-01T21:56:13.346Z,58.49
2018-10-01T21:59:16.838Z,58.17
2018-10-01T22:02:20.992Z,58.16
2018-10-01T22:05:24.568Z,57.96
2018-10-01T22:08:28.023Z,58.28
2018-10-01T22:11:31.443Z,58.08
2018-10-01T22:14:35.393Z,57.89
2018-10-01T22:17:38.866Z,57.98
2018-10-01T22:20:42.397Z,58.11
2018-10-01T22:23:46.464Z,58.07
2018-10-01T22:26:50.090Z,58.50
2018-10-01T22:29:53.579Z,58.97
2018-10-01T22:32:57.285Z,58.96
2018-10-01T22:36:00.831Z,59.22
2018-10-01T22:39:05.326Z,59.63
2018-10-01T22:42:08.814Z,59.69
2018-10-01T22:45:12.321Z,59.66
2018-10-01T22:48:15.828Z,59.79
2018-10-01T22:51:19.337Z,60.26
2018-10-01T22:54:23.246Z,61.09
2018-10-01T22:57:27.146Z,61.56
2018-10-01T23:00:30.684Z,61.66
2018-10-01T23:03:34.158Z,61.78
2018-10-01T23:06:37.663Z,62.01
2018-10-01T23:09:41.159Z,62.00
2018-10-01T23:12:44.653Z,62.17
2018-10-01T23:15:48.232Z,62.79
2018-10-01T23:18:51.819Z,63.37
2018-10-01T23:21:55.267Z,62.74
2018-10-01T23:24:58.813Z,62.95
2018-10-01T23:28:02.264Z,62.92
2018-10-01T23:31:05.988Z,62.28
2018-10-01T23:34:09.360Z,62.44
2018-10-01T23:37:12.775Z,62.15
2018-10-01T23:40:16.228Z,61.72
2018-10-01T23:43:19.679Z,62.02
2018-10-01T23:46:23.090Z,62.21
2018-10-01T23:49:26.552Z,62.56
2018-10-01T23:52:29.986Z,63.35
2018-10-01T23:55:33.497Z,63.99
2018-10-01T23:58:36.865Z,64.03
